createdAt,value
2019-01-29T00:00:29.883Z,13.20
2019-01-29T00:01:29.834Z,8.90
2019-01-29T00:02:29.820Z,9.50
2019-01-29T00:03:29.821Z,12.90
2019-01-29T00:04:29.800Z,11.90
2019-01-29T00:05:29.787Z,9.30
2019-01-29T00:06:29.774Z,10.70
2019-01-29T00:07:29.765Z,12.90
2019-01-29T00:08:29.836Z,12.90
2019-01-29T00:09:29.744Z,11.80
2019-01-29T00:10:29.728Z,9.50
2019-01-29T00:11:29.720Z,11.20
2019-01-29T00:12:29.705Z,10.70
2019-01-29T00:13:29.697Z,10.90
2019-01-29T00:14:29.686Z,9.10
2019-01-29T00:15:29.689Z,14.20
2019-01-29T00:16:29.679Z,9.70
2019-01-29T00:17:29.651Z,9.70
2019-01-29T00:18:29.638Z,10.90
2019-01-29T00:19:29.630Z,13.20
2019-01-29T00:20:29.614Z,10.70
2019-01-29T00:21:29.605Z,8.80
2019-01-29T00:22:33.480Z,12.10
2019-01-29T00:23:29.585Z,12.00
2019-01-29T00:24:29.834Z,12.00
2019-01-29T00:25:29.559Z,10.90
2019-01-29T00:26:32.166Z,12.70
2019-01-29T00:27:29.836Z,11.70
2019-01-29T00:28:29.533Z,13.90
2019-01-29T00:29:29.512Z,12.00
2019-01-29T00:30:29.537Z,13.10
2019-01-29T00:31:29.490Z,9.40
2019-01-29T00:32:29.495Z,10.90
2019-01-29T00:33:29.478Z,13.40
2019-01-29T00:34:29.453Z,10.90
2019-01-29T00:35:29.454Z,13.70
2019-01-29T00:36:29.431Z,9.60
2019-01-29T00:37:29.420Z,10.50
2019-01-29T00:38:29.406Z,9.30
2019-01-29T00:39:29.405Z,10.10
2019-01-29T00:40:29.782Z,9.50
2019-01-29T00:41:29.377Z,9.60
2019-01-29T00:42:29.360Z,10.60
2019-01-29T00:43:29.352Z,10.10
2019-01-29T00:44:29.336Z,12.20
2019-01-29T00:45:29.328Z,13.70
2019-01-29T00:46:29.313Z,11.90
2019-01-29T00:47:29.304Z,9.70
2019-01-29T00:48:29.497Z,9.70
2019-01-29T00:49:29.281Z,11.60
2019-01-29T00:50:29.267Z,12.10
2019-01-29T00:51:29.258Z,11.70
2019-01-29T00:52:29.243Z,11.10
2019-01-29T00:53:29.253Z,13.30
2019-01-29T00:54:29.220Z,8.40
2019-01-29T00:55:29.268Z,10.90
2019-01-29T00:56:29.757Z,12.80
2019-01-29T00:57:29.503Z,11.70
2019-01-29T00:58:29.175Z,11.00
2019-01-29T00:59:29.164Z,10.00
2019-01-29T01:00:29.150Z,13.20
2019-01-29T01:01:29.141Z,12.40
2019-01-29T01:02:29.127Z,9.60
2019-01-29T01:03:29.117Z,8.30
2019-01-29T01:04:29.103Z,10.20
2019-01-29T01:05:29.099Z,10.30
2019-01-29T01:06:29.080Z,9.20
2019-01-29T01:07:29.071Z,10.60
2019-01-29T01:08:29.057Z,8.60
2019-01-29T01:09:29.049Z,10.00
2019-01-29T01:10:29.034Z,12.70
2019-01-29T01:11:29.025Z,8.00
2019-01-29T01:12:29.011Z,9.30
2019-01-29T01:13:29.007Z,9.30
2019-01-29T01:14:28.989Z,7.90
2019-01-29T01:15:28.983Z,8.80
2019-01-29T01:16:28.965Z,10.50
2019-01-29T01:17:28.956Z,9.80
2019-01-29T01:18:28.943Z,13.20
2019-01-29T01:19:28.937Z,11.20
2019-01-29T01:20:28.920Z,8.40
2019-01-29T01:21:28.912Z,11.90
2019-01-29T01:22:28.898Z,10.00
2019-01-29T01:23:28.890Z,11.20
2019-01-29T01:24:28.875Z,10.60
2019-01-29T01:25:28.866Z,7.90
2019-01-29T01:26:28.853Z,11.10
2019-01-29T01:27:28.845Z,8.80
2019-01-29T01:28:29.423Z,9.30
2019-01-29T01:29:28.830Z,9.10
2019-01-29T01:30:28.808Z,12.10
2019-01-29T01:31:28.800Z,10.60
2019-01-29T01:32:28.785Z,11.10
2019-01-29T01:33:28.777Z,12.30
2019-01-29T01:34:28.764Z,11.00
2019-01-29T01:35:28.756Z,7.70
2019-01-29T01:36:28.741Z,11.40
2019-01-29T01:37:28.731Z,9.10
2019-01-29T01:38:28.718Z,9.40
2019-01-29T01:39:28.709Z,11.20
2019-01-29T01:40:28.695Z,12.80
2019-01-29T01:41:28.686Z,13.30
2019-01-29T01:42:28.672Z,10.50
2019-01-29T01:43:28.666Z,9.20
2019-01-29T01:44:28.650Z,11.00
2019-01-29T01:45:28.640Z,10.80
2019-01-29T01:46:28.628Z,12.10
2019-01-29T01:47:28.621Z,10.70
2019-01-29T01:48:28.620Z,9.60
2019-01-29T01:49:28.597Z,9.10
2019-01-29T01:50:28.581Z,9.60
2019-01-29T01:51:28.572Z,11.00
2019-01-29T01:52:28.565Z,9.80
2019-01-29T01:53:28.577Z,9.70
2019-01-29T01:54:28.535Z,11.50
2019-01-29T01:55:28.527Z,11.10
2019-01-29T01:56:28.512Z,10.30
2019-01-29T01:57:28.504Z,8.90
2019-01-29T01:58:28.490Z,10.00
2019-01-29T01:59:28.480Z,12.70
2019-01-29T02:00:28.467Z,13.60
2019-01-29T02:01:28.457Z,10.50
2019-01-29T02:02:28.444Z,9.30
2019-01-29T02:03:28.435Z,12.60
2019-01-29T02:04:28.420Z,13.10
2019-01-29T02:05:28.424Z,13.50
2019-01-29T02:06:28.398Z,10.40
2019-01-29T02:07:28.390Z,12.00
2019-01-29T02:08:28.375Z,12.20
2019-01-29T02:09:28.366Z,10.50
2019-01-29T02:10:28.352Z,11.00
2019-01-29T02:11:28.347Z,14.40
2019-01-29T02:12:28.333Z,12.00
2019-01-29T02:13:28.321Z,12.70
2019-01-29T02:14:28.307Z,9.10
2019-01-29T02:15:28.299Z,12.50
2019-01-29T02:16:28.284Z,14.80
2019-01-29T02:17:28.275Z,13.80
2019-01-29T02:18:28.261Z,12.60
2019-01-29T02:19:28.253Z,12.90
2019-01-29T02:20:28.238Z,10.40
2019-01-29T02:21:28.231Z,12.20
2019-01-29T02:22:28.216Z,12.00
2019-01-29T02:23:28.207Z,14.20
2019-01-29T02:24:28.193Z,10.80
2019-01-29T02:25:28.190Z,13.40
2019-01-29T02:26:28.170Z,13.30
2019-01-29T02:27:28.162Z,13.10
2019-01-29T02:28:28.147Z,15.30
2019-01-29T02:29:28.138Z,9.90
2019-01-29T02:30:28.128Z,13.50
2019-01-29T02:31:28.121Z,12.40
2019-01-29T02:32:28.101Z,13.20
2019-01-29T02:33:28.093Z,13.30
2019-01-29T02:34:28.079Z,11.40
2019-01-29T02:35:28.070Z,11.00
2019-01-29T02:36:28.055Z,14.70
2019-01-29T02:37:28.046Z,12.00
2019-01-29T02:38:28.036Z,13.20
2019-01-29T02:39:28.023Z,12.90
2019-01-29T02:40:28.012Z,13.40
2019-01-29T02:41:28.000Z,15.00
2019-01-29T02:42:27.986Z,11.70
2019-01-29T02:43:27.976Z,10.70
2019-01-29T02:44:27.961Z,12.90
2019-01-29T02:45:27.956Z,14.00
2019-01-29T02:46:27.939Z,10.90
2019-01-29T02:47:27.933Z,10.90
2019-01-29T02:48:27.916Z,14.20
2019-01-29T02:49:27.911Z,10.50
2019-01-29T02:50:27.892Z,11.70
2019-01-29T02:51:27.882Z,9.90
2019-01-29T02:52:27.869Z,9.90
2019-01-29T02:53:27.858Z,11.10
2019-01-29T02:54:27.845Z,10.40
2019-01-29T02:55:27.836Z,10.90
2019-01-29T02:56:27.821Z,11.20
2019-01-29T02:57:27.814Z,14.10
2019-01-29T02:58:27.798Z,13.60
2019-01-29T02:59:27.790Z,11.00
2019-01-29T03:00:27.778Z,8.20
2019-01-29T03:01:27.763Z,9.80
2019-01-29T03:02:27.750Z,15.20
2019-01-29T03:03:28.044Z,11.30
2019-01-29T03:04:27.728Z,10.90
2019-01-29T03:05:27.716Z,9.50
2019-01-29T03:06:27.713Z,11.50
2019-01-29T03:07:27.694Z,10.40
2019-01-29T03:08:27.680Z,11.10
2019-01-29T03:09:27.672Z,11.80
2019-01-29T03:10:27.657Z,13.30
2019-01-29T03:11:27.657Z,12.50
2019-01-29T03:12:27.633Z,13.70
2019-01-29T03:13:27.626Z,12.50
2019-01-29T03:14:27.610Z,9.90
2019-01-29T03:15:27.601Z,13.90
2019-01-29T03:16:27.585Z,14.10
2019-01-29T03:17:27.577Z,10.90
2019-01-29T03:18:27.564Z,10.40
2019-01-29T03:19:27.553Z,13.30
2019-01-29T03:20:27.538Z,13.50
2019-01-29T03:21:27.532Z,14.10
2019-01-29T03:22:27.516Z,11.70
2019-01-29T03:23:28.023Z,12.10
2019-01-29T03:24:27.491Z,15.40
2019-01-29T03:25:27.505Z,10.20
2019-01-29T03:26:27.468Z,11.40
2019-01-29T03:27:27.459Z,12.10
2019-01-29T03:28:27.444Z,11.00
2019-01-29T03:29:27.435Z,12.40
2019-01-29T03:30:27.426Z,11.40
2019-01-29T03:31:27.419Z,13.00
2019-01-29T03:32:27.398Z,13.90
2019-01-29T03:33:27.691Z,12.30
2019-01-29T03:34:27.373Z,10.00
2019-01-29T03:35:27.365Z,12.30
2019-01-29T03:36:27.350Z,12.60
2019-01-29T03:37:27.339Z,14.90
2019-01-29T03:38:27.325Z,11.20
2019-01-29T03:39:27.315Z,11.10
2019-01-29T03:40:27.302Z,14.50
2019-01-29T03:41:27.291Z,14.10
2019-01-29T03:42:27.278Z,12.80
2019-01-29T03:43:27.273Z,16.60
2019-01-29T03:44:27.254Z,12.20
2019-01-29T03:45:27.262Z,13.50
2019-01-29T03:46:27.230Z,15.90
2019-01-29T03:47:27.219Z,17.30
2019-01-29T03:48:27.205Z,12.90
2019-01-29T03:49:27.198Z,14.30
2019-01-29T03:50:29.140Z,16.20
2019-01-29T03:51:27.171Z,15.50
2019-01-29T03:52:27.156Z,18.60
2019-01-29T03:53:37.537Z,16.00
2019-01-29T03:54:27.132Z,18.80
2019-01-29T03:55:27.124Z,18.50
2019-01-29T03:56:27.108Z,19.70
2019-01-29T03:57:27.096Z,18.20
2019-01-29T03:58:27.096Z,16.50
2019-01-29T03:59:27.074Z,16.00
2019-01-29T04:00:27.114Z,16.20
2019-01-29T04:01:27.048Z,19.70
2019-01-29T04:02:27.040Z,19.00
2019-01-29T04:03:27.025Z,18.90
2019-01-29T04:04:27.314Z,19.30
2019-01-29T04:05:27.001Z,18.70
2019-01-29T04:06:26.991Z,18.10
2019-01-29T04:07:26.977Z,19.20
2019-01-29T04:08:26.968Z,16.10
2019-01-29T04:09:26.952Z,20.60
2019-01-29T04:10:26.944Z,24.50
2019-01-29T04:11:26.931Z,19.50
2019-01-29T04:12:26.919Z,21.00
2019-01-29T04:13:26.905Z,20.70
2019-01-29T04:14:26.897Z,20.50
2019-01-29T04:15:26.881Z,21.80
2019-01-29T04:16:26.872Z,21.10
2019-01-29T04:17:26.857Z,20.40
2019-01-29T04:18:26.860Z,17.70
2019-01-29T04:19:26.842Z,20.40
2019-01-29T04:20:26.836Z,22.30
2019-01-29T04:21:26.811Z,21.30
2019-01-29T04:22:26.800Z,18.00
2019-01-29T04:23:26.798Z,20.60
2019-01-29T04:24:26.782Z,21.80
2019-01-29T04:25:26.762Z,21.60
2019-01-29T04:26:26.754Z,22.10
2019-01-29T04:27:26.756Z,20.00
2019-01-29T04:28:26.745Z,23.40
2019-01-29T04:29:26.715Z,20.10
2019-01-29T04:30:26.710Z,25.20
2019-01-29T04:31:26.693Z,22.40
2019-01-29T04:32:26.680Z,19.20
2019-01-29T04:33:26.667Z,22.90
2019-01-29T04:34:26.908Z,20.10
2019-01-29T04:35:26.643Z,22.70
2019-01-29T04:36:26.633Z,20.60
2019-01-29T04:37:26.624Z,21.50
2019-01-29T04:38:26.609Z,22.40
2019-01-29T04:39:26.595Z,23.20
2019-01-29T04:40:26.586Z,21.90
2019-01-29T04:41:26.577Z,23.90
2019-01-29T04:42:26.561Z,21.70
2019-01-29T04:43:26.550Z,23.10
2019-01-29T04:44:26.548Z,21.00
2019-01-29T04:45:26.524Z,20.40
2019-01-29T04:46:26.518Z,20.80
2019-01-29T04:47:26.500Z,19.50
2019-01-29T04:48:26.492Z,19.40
2019-01-29T04:49:26.476Z,21.80
2019-01-29T04:50:26.467Z,26.40
2019-01-29T04:51:26.453Z,22.10
2019-01-29T04:52:26.442Z,26.40
2019-01-29T04:53:26.429Z,24.70
2019-01-29T04:54:26.419Z,24.40
2019-01-29T04:55:26.408Z,23.20
2019-01-29T04:56:26.395Z,21.20
2019-01-29T04:57:26.381Z,23.70
2019-01-29T04:58:26.371Z,16.10
2019-01-29T04:59:26.358Z,22.40
2019-01-29T05:00:26.348Z,17.10
2019-01-29T05:01:26.337Z,19.30
2019-01-29T05:02:26.324Z,19.80
2019-01-29T05:03:26.310Z,22.70
2019-01-29T05:04:26.300Z,19.50
2019-01-29T05:05:26.285Z,21.20
2019-01-29T05:06:26.275Z,22.40
2019-01-29T05:07:26.262Z,21.30
2019-01-29T05:08:26.254Z,20.60
2019-01-29T05:09:26.536Z,20.50
2019-01-29T05:10:26.226Z,20.70
2019-01-29T05:11:26.213Z,24.20
2019-01-29T05:12:26.201Z,18.10
2019-01-29T05:13:26.186Z,23.00
2019-01-29T05:14:26.178Z,20.50
2019-01-29T05:15:26.163Z,24.10
2019-01-29T05:16:26.150Z,22.40
2019-01-29T05:17:26.136Z,16.90
2019-01-29T05:18:26.127Z,22.80
2019-01-29T05:19:26.113Z,20.20
2019-01-29T05:20:26.100Z,23.80
2019-01-29T05:21:26.086Z,19.70
2019-01-29T05:22:26.090Z,18.30
2019-01-29T05:23:26.062Z,23.70
2019-01-29T05:24:26.051Z,24.70
2019-01-29T05:25:26.035Z,19.50
2019-01-29T05:26:26.025Z,19.50
2019-01-29T05:27:26.010Z,22.80
2019-01-29T05:28:25.998Z,24.40
2019-01-29T05:29:25.985Z,24.90
2019-01-29T05:30:25.974Z,25.10
2019-01-29T05:31:25.959Z,21.40
2019-01-29T05:32:25.948Z,23.00
2019-01-29T05:33:25.934Z,21.20
2019-01-29T05:34:25.923Z,27.10
2019-01-29T05:35:25.909Z,21.80
2019-01-29T05:36:25.897Z,25.10
2019-01-29T05:37:25.889Z,24.10
2019-01-29T05:38:25.887Z,23.60
2019-01-29T05:39:25.858Z,24.30
2019-01-29T05:40:26.149Z,23.80
2019-01-29T05:41:25.833Z,22.30
2019-01-29T05:42:25.827Z,21.30
2019-01-29T05:43:25.807Z,24.00
2019-01-29T05:44:25.795Z,21.20
2019-01-29T05:45:25.782Z,21.20
2019-01-29T05:46:25.769Z,17.30
2019-01-29T05:47:25.756Z,20.90
2019-01-29T05:48:25.743Z,17.10
2019-01-29T05:49:25.728Z,21.60
2019-01-29T05:50:25.718Z,18.10
2019-01-29T05:51:25.704Z,18.40
2019-01-29T05:52:25.692Z,20.10
2019-01-29T05:53:25.677Z,21.80
2019-01-29T05:54:25.668Z,22.00
2019-01-29T05:55:25.651Z,18.40
2019-01-29T05:56:25.639Z,20.40
2019-01-29T05:57:25.626Z,26.80
2019-01-29T05:58:25.615Z,22.90
2019-01-29T05:59:25.599Z,16.80
2019-01-29T06:00:25.588Z,23.70
2019-01-29T06:01:25.573Z,23.30
2019-01-29T06:02:25.563Z,21.10
2019-01-29T06:03:25.548Z,24.10
2019-01-29T06:04:25.536Z,26.70
2019-01-29T06:05:25.522Z,25.00
2019-01-29T06:06:25.510Z,26.90
2019-01-29T06:07:25.495Z,27.70
2019-01-29T06:08:25.483Z,26.20
2019-01-29T06:09:25.468Z,27.90
2019-01-29T06:10:25.469Z,31.70
2019-01-29T06:11:25.444Z,27.20
2019-01-29T06:12:25.431Z,25.60
2019-01-29T06:13:25.417Z,26.60
2019-01-29T06:14:25.433Z,30.40
2019-01-29T06:15:25.391Z,26.40
2019-01-29T06:16:25.380Z,24.80
2019-01-29T06:17:27.552Z,25.70
2019-01-29T06:18:25.355Z,24.20
2019-01-29T06:19:25.344Z,23.60
2019-01-29T06:20:25.331Z,20.50
2019-01-29T06:21:25.327Z,23.50
2019-01-29T06:22:25.305Z,25.50
2019-01-29T06:23:25.289Z,22.60
2019-01-29T06:24:26.149Z,24.20
2019-01-29T06:25:25.267Z,23.80
2019-01-29T06:26:25.253Z,25.40
2019-01-29T06:27:25.246Z,27.00
2019-01-29T06:28:25.226Z,25.00
2019-01-29T06:29:25.211Z,25.30
2019-01-29T06:30:25.200Z,26.90
2019-01-29T06:31:25.186Z,24.20
2019-01-29T06:32:25.174Z,26.40
2019-01-29T06:33:25.159Z,29.40
2019-01-29T06:34:25.149Z,27.50
2019-01-29T06:35:25.134Z,28.30
2019-01-29T06:36:25.125Z,30.60
2019-01-29T06:37:25.111Z,28.80
2019-01-29T06:38:25.097Z,32.90
2019-01-29T06:39:25.083Z,29.90
2019-01-29T06:40:25.071Z,32.40
2019-01-29T06:41:25.056Z,30.50
2019-01-29T06:42:25.046Z,29.00
2019-01-29T06:43:25.032Z,29.80
2019-01-29T06:44:25.023Z,31.90
2019-01-29T06:45:25.005Z,32.80
2019-01-29T06:46:24.995Z,33.30
2019-01-29T06:47:24.981Z,35.30
2019-01-29T06:48:24.968Z,35.20
2019-01-29T06:49:24.962Z,32.10
2019-01-29T06:50:24.956Z,32.00
2019-01-29T06:51:24.929Z,31.40
2019-01-29T06:52:24.918Z,29.60
2019-01-29T06:53:24.905Z,30.90
2019-01-29T06:54:24.907Z,33.30
2019-01-29T06:55:24.880Z,10.50
2019-01-29T06:56:24.907Z,29.50
2019-01-29T06:57:24.853Z,32.10
2019-01-29T06:58:24.843Z,33.60
2019-01-29T06:59:24.828Z,27.60
2019-01-29T07:00:24.816Z,29.80
2019-01-29T07:01:24.802Z,23.70
2019-01-29T07:02:24.792Z,27.60
2019-01-29T07:03:24.777Z,26.10
2019-01-29T07:04:24.766Z,24.80
2019-01-29T07:05:24.753Z,28.30
2019-01-29T07:06:24.740Z,28.20
2019-01-29T07:07:24.726Z,26.60
2019-01-29T07:08:24.714Z,28.00
2019-01-29T07:09:24.949Z,33.00
2019-01-29T07:10:24.689Z,31.60
2019-01-29T07:11:24.674Z,32.50
2019-01-29T07:12:24.662Z,31.80
2019-01-29T07:13:24.647Z,33.20
2019-01-29T07:14:24.637Z,29.80
2019-01-29T07:15:24.624Z,29.60
2019-01-29T07:16:24.613Z,25.00
2019-01-29T07:17:24.597Z,35.40
2019-01-29T07:18:24.587Z,31.20
2019-01-29T07:19:24.571Z,35.40
2019-01-29T07:20:24.560Z,32.40
2019-01-29T07:21:24.544Z,30.60
2019-01-29T07:22:24.534Z,35.90
2019-01-29T07:23:24.519Z,32.40
2019-01-29T07:24:24.508Z,32.10
2019-01-29T07:25:24.494Z,30.30
2019-01-29T07:26:24.483Z,32.70
2019-01-29T07:27:24.472Z,32.60
2019-01-29T07:28:24.457Z,34.70
2019-01-29T07:29:24.442Z,28.90
2019-01-29T07:30:24.434Z,23.10
2019-01-29T07:31:24.418Z,30.20
2019-01-29T07:32:24.406Z,27.40
2019-01-29T07:33:24.392Z,27.20
2019-01-29T07:34:24.381Z,29.80
2019-01-29T07:35:24.367Z,21.20
2019-01-29T07:36:24.355Z,28.50
2019-01-29T07:37:24.341Z,19.00
2019-01-29T07:38:24.332Z,18.70
2019-01-29T07:39:24.316Z,24.90
2019-01-29T07:40:24.309Z,25.50
2019-01-29T07:41:24.292Z,24.80
2019-01-29T07:42:24.287Z,19.20
2019-01-29T07:43:24.266Z,26.20
2019-01-29T07:44:24.255Z,18.80
2019-01-29T07:45:24.240Z,27.00
2019-01-29T07:46:24.231Z,25.20
2019-01-29T07:47:24.216Z,24.30
2019-01-29T07:48:24.205Z,19.60
2019-01-29T07:49:24.190Z,22.70
2019-01-29T07:50:24.187Z,23.50
2019-01-29T07:51:24.170Z,24.50
2019-01-29T07:52:24.156Z,26.90
2019-01-29T07:53:24.202Z,24.30
2019-01-29T07:54:24.131Z,25.20
2019-01-29T07:55:24.117Z,19.70
2019-01-29T07:56:24.106Z,17.70
2019-01-29T07:57:24.092Z,21.80
2019-01-29T07:58:24.083Z,27.30
2019-01-29T07:59:32.463Z,21.70
2019-01-29T08:00:24.057Z,22.10
2019-01-29T08:01:24.044Z,25.60
2019-01-29T08:02:24.048Z,23.60
2019-01-29T08:03:24.021Z,25.20
2019-01-29T08:04:24.009Z,22.40
2019-01-29T08:05:23.996Z,20.50
2019-01-29T08:06:23.991Z,19.30
2019-01-29T08:07:23.972Z,22.30
2019-01-29T08:08:23.960Z,22.60
2019-01-29T08:09:23.946Z,19.70
2019-01-29T08:10:24.767Z,22.80
2019-01-29T08:11:23.939Z,22.70
2019-01-29T08:12:23.911Z,24.30
2019-01-29T08:13:23.900Z,24.00
2019-01-29T08:14:23.885Z,19.30
2019-01-29T08:15:23.876Z,16.20
2019-01-29T08:16:23.860Z,20.00
2019-01-29T08:17:23.850Z,22.70
2019-01-29T08:18:23.837Z,23.50
2019-01-29T08:19:23.827Z,16.30
2019-01-29T08:20:23.810Z,20.40
2019-01-29T08:21:23.800Z,19.30
2019-01-29T08:22:23.787Z,23.20
2019-01-29T08:23:23.777Z,17.90
2019-01-29T08:24:23.761Z,18.30
2019-01-29T08:25:23.751Z,23.80
2019-01-29T08:26:23.740Z,20.70
2019-01-29T08:27:23.727Z,25.10
2019-01-29T08:28:23.711Z,25.00
2019-01-29T08:29:23.702Z,22.90
2019-01-29T08:30:23.702Z,25.60
2019-01-29T08:31:23.677Z,26.40
2019-01-29T08:32:23.662Z,23.50
2019-01-29T08:33:23.652Z,27.50
2019-01-29T08:34:23.640Z,28.80
2019-01-29T08:35:23.627Z,29.90
2019-01-29T08:36:23.612Z,30.60
2019-01-29T08:37:23.605Z,28.10
2019-01-29T08:38:23.588Z,31.20
2019-01-29T08:39:23.579Z,34.10
2019-01-29T08:40:23.564Z,30.10
2019-01-29T08:41:23.556Z,31.80
2019-01-29T08:42:23.540Z,25.70
2019-01-29T08:43:23.530Z,31.30
2019-01-29T08:44:23.515Z,30.20
2019-01-29T08:45:23.505Z,28.60
2019-01-29T08:46:23.513Z,33.50
2019-01-29T08:47:23.481Z,31.40
2019-01-29T08:48:23.465Z,34.30
2019-01-29T08:49:23.457Z,27.80
2019-01-29T08:50:23.445Z,33.20
2019-01-29T08:51:23.433Z,35.70
2019-01-29T08:52:23.418Z,33.20
2019-01-29T08:53:23.415Z,32.40
2019-01-29T08:54:23.394Z,28.00
2019-01-29T08:55:23.384Z,33.80
2019-01-29T08:56:23.369Z,32.60
2019-01-29T08:57:23.360Z,34.50
2019-01-29T08:58:27.308Z,28.70
2019-01-29T08:59:23.336Z,34.00
2019-01-29T09:00:23.336Z,34.20
2019-01-29T09:01:23.313Z,31.60
2019-01-29T09:02:23.298Z,30.60
2019-01-29T09:03:23.287Z,35.90
2019-01-29T09:04:23.272Z,33.80
2019-01-29T09:05:23.263Z,33.80
2019-01-29T09:06:23.249Z,31.80
2019-01-29T09:07:23.239Z,38.80
2019-01-29T09:08:23.224Z,37.30
2019-01-29T09:09:23.214Z,28.60
2019-01-29T09:10:23.204Z,36.60
2019-01-29T09:11:23.190Z,30.50
2019-01-29T09:12:23.175Z,37.40
2019-01-29T09:13:23.179Z,36.20
2019-01-29T09:14:23.152Z,36.00
2019-01-29T09:15:23.142Z,34.00
2019-01-29T09:16:23.133Z,36.80
2019-01-29T09:17:23.117Z,34.60
2019-01-29T09:18:23.103Z,29.40
2019-01-29T09:19:23.094Z,32.70
2019-01-29T09:20:23.081Z,35.50
2019-01-29T09:21:23.078Z,38.30
2019-01-29T09:22:23.055Z,36.10
2019-01-29T09:23:23.045Z,37.60
2019-01-29T09:24:23.030Z,35.70
2019-01-29T09:25:23.021Z,35.00
2019-01-29T09:26:23.008Z,38.10
2019-01-29T09:27:22.997Z,41.30
2019-01-29T09:28:22.987Z,34.10
2019-01-29T09:29:22.973Z,31.70
2019-01-29T09:30:22.963Z,36.90
2019-01-29T09:31:22.966Z,38.40
2019-01-29T09:32:22.934Z,38.90
2019-01-29T09:33:22.925Z,38.30
2019-01-29T09:34:22.911Z,32.70
2019-01-29T09:35:22.902Z,33.60
2019-01-29T09:36:22.889Z,36.10
2019-01-29T09:37:22.879Z,36.50
2019-01-29T09:38:22.865Z,30.70
2019-01-29T09:39:22.856Z,39.40
2019-01-29T09:40:22.842Z,39.50
2019-01-29T09:41:22.832Z,39.80
2019-01-29T09:42:22.818Z,37.10
2019-01-29T09:43:22.809Z,36.80
2019-01-29T09:44:22.794Z,34.20
2019-01-29T09:45:22.786Z,38.50
2019-01-29T09:46:22.772Z,30.50
2019-01-29T09:47:22.766Z,36.70
2019-01-29T09:48:22.750Z,38.60
2019-01-29T09:49:22.740Z,34.80
2019-01-29T09:50:22.730Z,35.70
2019-01-29T09:51:22.717Z,24.70
2019-01-29T09:52:22.703Z,33.20
2019-01-29T09:53:22.693Z,34.50
2019-01-29T09:54:22.680Z,32.10
2019-01-29T09:55:28.914Z,36.40
2019-01-29T09:56:22.656Z,36.50
2019-01-29T09:57:22.648Z,33.60
2019-01-29T09:58:22.633Z,32.90
2019-01-29T09:59:22.627Z,36.60
2019-01-29T10:00:22.609Z,35.20
2019-01-29T10:01:22.600Z,36.70
2019-01-29T10:02:22.588Z,35.30
2019-01-29T10:03:22.579Z,36.00
2019-01-29T10:04:22.563Z,35.40
2019-01-29T10:05:22.554Z,32.80
2019-01-29T10:06:22.540Z,36.50
2019-01-29T10:07:22.531Z,32.00
2019-01-29T10:08:22.516Z,33.80
2019-01-29T10:09:22.808Z,34.30
2019-01-29T10:10:22.494Z,33.40
2019-01-29T10:11:22.486Z,35.50
2019-01-29T10:12:22.472Z,37.40
2019-01-29T10:13:22.463Z,35.60
2019-01-29T10:14:22.449Z,22.20
2019-01-29T10:15:22.439Z,31.80
2019-01-29T10:16:22.425Z,33.60
2019-01-29T10:17:22.418Z,33.60
2019-01-29T10:18:22.402Z,34.20
2019-01-29T10:19:22.395Z,33.20
2019-01-29T10:20:22.382Z,37.00
2019-01-29T10:21:22.371Z,33.80
2019-01-29T10:22:22.360Z,30.60
2019-01-29T10:23:22.354Z,33.20
2019-01-29T10:24:22.335Z,36.20
2019-01-29T10:25:22.325Z,36.10
2019-01-29T10:26:22.312Z,38.40
2019-01-29T10:27:22.303Z,33.90
2019-01-29T10:28:22.290Z,35.20
2019-01-29T10:29:22.283Z,37.40
2019-01-29T10:30:22.268Z,33.50
2019-01-29T10:31:24.264Z,31.50
2019-01-29T10:32:22.245Z,35.00
2019-01-29T10:33:22.236Z,37.00
2019-01-29T10:34:22.223Z,32.90
2019-01-29T10:35:22.225Z,35.60
2019-01-29T10:36:22.201Z,31.80
2019-01-29T10:37:22.193Z,31.50
2019-01-29T10:38:22.179Z,33.00
2019-01-29T10:39:22.173Z,34.90
2019-01-29T10:40:22.166Z,38.90
2019-01-29T10:41:22.149Z,38.20
2019-01-29T10:42:22.135Z,37.10
2019-01-29T10:43:22.127Z,35.20
2019-01-29T10:44:22.116Z,36.10
2019-01-29T10:45:22.105Z,31.10
2019-01-29T10:46:22.097Z,35.40
2019-01-29T10:47:22.084Z,37.60
2019-01-29T10:48:22.071Z,36.30
2019-01-29T10:49:22.061Z,35.70
2019-01-29T10:50:22.050Z,34.90
2019-01-29T10:51:22.040Z,33.70
2019-01-29T10:52:22.028Z,36.00
2019-01-29T10:53:22.018Z,28.00
2019-01-29T10:54:22.004Z,34.60
2019-01-29T10:55:21.996Z,32.80
2019-01-29T10:56:21.982Z,34.00
2019-01-29T10:57:21.975Z,34.80
2019-01-29T10:58:21.963Z,35.90
2019-01-29T10:59:21.952Z,37.80
2019-01-29T11:00:21.939Z,36.80
2019-01-29T11:01:21.932Z,37.00
2019-01-29T11:02:21.917Z,34.80
2019-01-29T11:03:21.908Z,38.80
2019-01-29T11:04:21.894Z,37.90
2019-01-29T11:05:21.887Z,42.40
2019-01-29T11:06:21.873Z,35.30
2019-01-29T11:07:21.866Z,36.40
2019-01-29T11:08:21.852Z,41.70
2019-01-29T11:09:25.611Z,38.50
2019-01-29T11:10:21.866Z,40.50
2019-01-29T11:11:21.821Z,36.50
2019-01-29T11:12:21.807Z,34.70
2019-01-29T11:13:21.799Z,36.90
2019-01-29T11:14:21.788Z,33.00
2019-01-29T11:15:21.778Z,32.70
2019-01-29T11:16:21.767Z,36.60
2019-01-29T11:17:21.757Z,40.00
2019-01-29T11:18:21.746Z,41.40
2019-01-29T11:19:21.737Z,42.40
2019-01-29T11:20:21.725Z,39.90
2019-01-29T11:21:21.714Z,40.40
2019-01-29T11:22:21.699Z,44.70
2019-01-29T11:23:21.691Z,42.50
2019-01-29T11:24:21.677Z,41.60
2019-01-29T11:25:21.669Z,39.80
2019-01-29T11:26:21.657Z,45.20
2019-01-29T11:27:21.648Z,34.80
2019-01-29T11:28:21.635Z,41.50
2019-01-29T11:29:21.626Z,42.70
2019-01-29T11:30:21.613Z,43.80
2019-01-29T11:31:21.605Z,45.50
2019-01-29T11:32:21.591Z,37.30
2019-01-29T11:33:21.590Z,43.70
2019-01-29T11:34:21.570Z,41.90
2019-01-29T11:35:21.563Z,39.30
2019-01-29T11:36:21.549Z,40.50
2019-01-29T11:37:21.544Z,42.20
2019-01-29T11:38:21.531Z,43.20
2019-01-29T11:39:21.523Z,37.20
2019-01-29T11:40:21.516Z,39.00
2019-01-29T11:41:21.499Z,38.50
2019-01-29T11:42:21.488Z,39.70
2019-01-29T11:43:21.480Z,38.60
2019-01-29T11:44:21.466Z,40.00
2019-01-29T11:45:21.458Z,36.30
2019-01-29T11:46:21.446Z,34.60
2019-01-29T11:47:21.439Z,37.60
2019-01-29T11:48:21.428Z,37.30
2019-01-29T11:49:21.418Z,33.80
2019-01-29T11:50:21.409Z,32.00
2019-01-29T11:51:21.399Z,32.70
2019-01-29T11:52:21.386Z,24.10
2019-01-29T11:53:21.379Z,29.00
2019-01-29T11:54:21.367Z,30.00
2019-01-29T11:55:21.360Z,32.80
2019-01-29T11:56:21.349Z,28.90
2019-01-29T11:57:21.342Z,30.50
2019-01-29T11:58:21.330Z,25.70
2019-01-29T11:59:21.322Z,29.40
2019-01-29T12:00:21.315Z,18.50
2019-01-29T12:01:21.318Z,23.60
2019-01-29T12:02:28.208Z,24.90
2019-01-29T12:03:21.284Z,17.90
2019-01-29T12:04:21.522Z,17.50
2019-01-29T12:05:21.266Z,25.70
2019-01-29T12:06:21.259Z,24.10
2019-01-29T12:07:21.263Z,25.50
2019-01-29T12:08:21.233Z,25.60
2019-01-29T12:09:21.226Z,20.70
2019-01-29T12:10:21.216Z,26.00
2019-01-29T12:11:21.209Z,23.60
2019-01-29T12:12:21.196Z,19.90
2019-01-29T12:13:21.188Z,26.20
2019-01-29T12:14:21.175Z,21.50
2019-01-29T12:15:21.168Z,25.10
2019-01-29T12:16:21.155Z,18.30
2019-01-29T12:17:21.147Z,25.60
2019-01-29T12:18:21.135Z,26.90
2019-01-29T12:19:21.128Z,17.70
2019-01-29T12:20:21.114Z,18.70
2019-01-29T12:21:21.106Z,17.20
2019-01-29T12:22:21.095Z,19.70
2019-01-29T12:23:21.087Z,23.40
2019-01-29T12:24:21.074Z,22.90
2019-01-29T12:25:21.067Z,18.70
2019-01-29T12:26:21.055Z,23.80
2019-01-29T12:27:21.047Z,25.20
2019-01-29T12:28:21.035Z,24.90
2019-01-29T12:29:21.028Z,29.20
2019-01-29T12:30:21.057Z,25.40
2019-01-29T12:31:21.006Z,17.30
2019-01-29T12:32:20.998Z,16.20
2019-01-29T12:33:20.987Z,21.70
2019-01-29T12:34:21.037Z,22.30
2019-01-29T12:35:20.968Z,22.40
2019-01-29T12:36:20.962Z,19.90
2019-01-29T12:37:20.958Z,15.60
2019-01-29T12:38:20.941Z,18.60
2019-01-29T12:39:20.934Z,20.50
2019-01-29T12:40:20.923Z,21.90
2019-01-29T12:41:20.911Z,20.80
2019-01-29T12:42:20.903Z,20.50
2019-01-29T12:43:20.893Z,19.80
2019-01-29T12:44:20.884Z,23.00
2019-01-29T12:45:20.873Z,22.20
2019-01-29T12:46:20.869Z,22.80
2019-01-29T12:47:20.855Z,21.50
2019-01-29T12:48:20.847Z,23.30
2019-01-29T12:49:20.840Z,22.80
2019-01-29T12:50:20.829Z,19.00
2019-01-29T12:51:20.818Z,23.20
2019-01-29T12:52:20.811Z,21.30
2019-01-29T12:53:20.798Z,25.70
2019-01-29T12:54:20.792Z,23.20